Time;durP1;ratioP1;P1;durP2;ratioP2;P2;SDS_P1;SDS_P2;PMS_P1;PMS_P2;Temp;Humidity;BMP_temperature;BMP_pressure;BME280_temperature;BME280_humidity;BME280_pressure;Samples;Min_cycle;Max_cycle;Signal;HPM_P1;HPM_P2
2020/12/10 00:00:13;;;;;;;4.63;3.20;;;20.90;50.80;;;;;;5030412;28;20360;-46
2020/12/10 00:02:39;;;;;;;4.50;3.25;;;20.80;50.70;;;;;;5032250;28;20022;-39
2020/12/10 00:05:07;;;;;;;4.38;2.90;;;20.90;50.60;;;;;;5025407;28;20107;-39
2020/12/10 00:07:34;;;;;;;5.88;3.00;;;20.80;50.60;;;;;;5032035;28;20044;-39
2020/12/10 00:10:00;;;;;;;4.22;3.05;;;20.80;50.50;;;;;;5029761;28;20079;-55
2020/12/10 00:12:26;;;;;;;5.80;3.53;;;20.80;50.50;;;;;;5031851;28;20105;-39
2020/12/10 00:14:53;;;;;;;3.83;2.78;;;20.90;50.50;;;;;;5031193;28;20029;-39
2020/12/10 00:17:37;;;;;;;5.47;3.00;;;20.90;50.40;;;;;;5031619;28;20107;-44
2020/12/10 00:20:07;;;;;;;3.85;2.78;;;20.80;50.30;;;;;;5030404;28;20044;-42
2020/12/10 00:22:34;;;;;;;4.28;2.85;;;20.80;50.30;;;;;;5030108;28;20029;-39
2020/12/10 00:25:00;;;;;;;6.28;2.92;;;20.80;50.30;;;;;;5028309;28;20049;-56
2020/12/10 00:27:26;;;;;;;3.78;2.83;;;20.80;50.20;;;;;;5026959;28;20030;-39
2020/12/10 00:29:56;;;;;;;3.63;2.92;;;20.80;50.20;;;;;;5026753;28;20034;-39
2020/12/10 00:32:24;;;;;;;5.38;2.60;;;20.80;50.10;;;;;;5025604;28;20033;-39
2020/12/10 00:34:50;;;;;;;3.88;2.90;;;20.70;50.00;;;;;;5024636;28;20039;-39
2020/12/10 00:37:16;;;;;;;3.47;2.97;;;20.70;50.00;;;;;;5027372;28;20033;-41
2020/12/10 00:39:41;;;;;;;4.40;2.95;;;20.70;49.90;;;;;;5025446;28;20494;-41
2020/12/10 00:42:07;;;;;;;3.72;2.60;;;20.70;49.80;;;;;;5027691;28;20025;-39
2020/12/10 00:44:33;;;;;;;3.67;2.85;;;20.70;49.80;;;;;;5028239;28;20032;-46
2020/12/10 00:46:58;;;;;;;3.17;2.60;;;20.70;49.70;;;;;;5028952;28;20352;-57
2020/12/10 00:49:24;;;;;;;4.07;2.80;;;20.70;49.80;;;;;;5027375;28;20025;-39
2020/12/10 00:51:50;;;;;;;5.47;2.70;;;20.70;49.70;;;;;;5027521;28;20025;-40
2020/12/10 00:54:16;;;;;;;4.40;2.53;;;20.70;49.60;;;;;;5023489;28;20341;-42
2020/12/10 00:56:43;;;;;;;3.58;2.60;;;20.70;49.60;;;;;;5022562;28;20446;-42
2020/12/10 00:59:09;;;;;;;5.07;2.80;;;20.70;49.50;;;;;;5027905;28;20041;-39
2020/12/10 01:01:35;;;;;;;5.35;2.45;;;20.60;49.30;;;;;;5021825;28;20040;-40
2020/12/10 01:04:01;;;;;;;3.78;2.42;;;20.60;49.40;;;;;;5021214;28;20030;-42
2020/12/10 01:06:26;;;;;;;3.05;2.17;;;20.60;49.10;;;;;;5022834;28;20117;-40
2020/12/10 01:08:53;;;;;;;4.13;2.85;;;20.60;49.10;;;;;;5027321;28;20034;-40
2020/12/10 01:11:25;;;;;;;3.38;2.55;;;20.60;49.10;;;;;;5026673;28;20100;-40
2020/12/10 01:13:50;;;;;;;3.67;2.72;;;20.60;49.10;;;;;;5023481;28;20029;-40
2020/12/10 01:16:17;;;;;;;3.60;2.33;;;20.60;48.90;;;;;;5024146;28;20057;-41
2020/12/10 01:18:43;;;;;;;3.67;2.70;;;20.60;48.90;;;;;;5024314;28;20026;-40
2020/12/10 01:21:08;;;;;;;5.90;2.80;;;20.60;48.80;;;;;;5024118;28;20029;-39
2020/12/10 01:23:34;;;;;;;3.10;2.25;;;20.60;48.80;;;;;;5025176;28;21277;-41
2020/12/10 01:26:00;;;;;;;4.32;2.53;;;20.60;48.70;;;;;;5021937;28;20041;-57
2020/12/10 01:28:25;;;;;;;3.20;2.75;;;20.60;48.70;;;;;;5023815;28;20033;-39
2020/12/10 01:30:51;;;;;;;3.30;2.40;;;20.60;48.60;;;;;;5025430;28;20367;-40
2020/12/10 01:33:17;;;;;;;4.15;2.90;;;20.60;48.60;;;;;;5021875;28;20584;-40
2020/12/10 01:35:43;;;;;;;5.47;2.50;;;20.60;48.40;;;;;;5030930;28;20171;-39
2020/12/10 01:38:09;;;;;;;3.70;2.53;;;20.60;48.50;;;;;;5029357;28;20034;-39
2020/12/10 01:40:34;;;;;;;3.65;2.80;;;20.60;48.40;;;;;;5030514;28;20098;-41
2020/12/10 01:43:00;;;;;;;4.65;2.80;;;20.60;48.30;;;;;;5029734;28;20025;-59
2020/12/10 01:45:26;;;;;;;3.78;2.70;;;20.60;48.30;;;;;;5030569;28;20445;-41
2020/12/10 01:47:52;;;;;;;2.95;2.30;;;20.50;48.20;;;;;;5030343;28;20041;-40
2020/12/10 01:50:17;;;;;;;4.30;2.70;;;20.60;48.20;;;;;;5029548;28;20033;-41
2020/12/10 01:52:43;;;;;;;3.42;2.30;;;20.50;48.10;;;;;;5030650;28;20030;-41
2020/12/10 01:55:08;;;;;;;3.30;2.70;;;20.60;48.10;;;;;;5029806;28;20168;-42
2020/12/10 01:57:34;;;;;;;4.80;3.20;;;20.50;48.10;;;;;;5030089;28;20063;-41
2020/12/10 02:00:00;;;;;;;3.50;2.65;;;20.50;48.00;;;;;;5029665;28;20462;-59
2020/12/10 02:02:26;;;;;;;3.30;2.55;;;20.50;47.80;;;;;;5030090;28;20021;-40
2020/12/10 02:04:51;;;;;;;3.58;2.63;;;20.50;47.90;;;;;;5030407;28;20037;-40
2020/12/10 02:07:17;;;;;;;4.40;2.75;;;20.50;47.80;;;;;;5029339;28;20072;-41
2020/12/10 02:09:43;;;;;;;3.78;2.58;;;20.50;47.80;;;;;;5028996;28;20021;-44
2020/12/10 02:12:09;;;;;;;4.15;2.75;;;20.50;47.70;;;;;;5027324;28;20025;-40
2020/12/10 02:14:37;;;;;;;4.75;2.60;;;20.50;47.60;;;;;;5030071;28;20029;-41
2020/12/10 02:17:07;;;;;;;4.25;2.95;;;20.50;47.60;;;;;;5029159;28;20437;-43
2020/12/10 02:19:33;;;;;;;4.80;2.55;;;20.60;47.60;;;;;;5030200;28;20136;-42
2020/12/10 02:21:59;;;;;;;2.95;2.20;;;20.50;47.50;;;;;;5029288;28;20452;-59
2020/12/10 02:24:25;;;;;;;3.35;2.40;;;20.50;47.50;;;;;;5029328;28;20060;-44
2020/12/10 02:26:51;;;;;;;3.53;2.40;;;20.50;47.40;;;;;;5030150;28;20575;-42
2020/12/10 02:29:18;;;;;;;3.40;2.50;;;20.50;47.40;;;;;;5028673;28;20144;-51
2020/12/10 02:31:44;;;;;;;4.40;2.38;;;20.50;47.40;;;;;;5029840;28;20021;-41
2020/12/10 02:34:10;;;;;;;3.67;2.70;;;20.50;47.30;;;;;;5028823;28;20017;-41
2020/12/10 02:36:36;;;;;;;3.55;2.15;;;20.50;47.20;;;;;;5029754;28;20034;-43
2020/12/10 02:39:05;;;;;;;3.53;2.58;;;20.50;47.20;;;;;;5029487;28;20033;-59
2020/12/10 02:41:30;;;;;;;4.03;2.40;;;20.50;47.10;;;;;;5029836;28;20033;-41
2020/12/10 02:43:56;;;;;;;3.38;2.63;;;20.50;47.10;;;;;;5029588;28;20026;-44
2020/12/10 02:46:22;;;;;;;2.95;1.98;;;20.50;47.10;;;;;;5028716;28;20826;-42
2020/12/10 02:48:48;;;;;;;4.28;2.70;;;20.50;47.00;;;;;;5029409;28;20088;-41
2020/12/10 02:51:14;;;;;;;2.78;1.98;;;20.60;47.10;;;;;;5033508;28;20478;-55
2020/12/10 02:53:39;;;;;;;3.85;2.47;;;20.50;47.00;;;;;;5033603;28;20037;-40
2020/12/10 02:56:10;;;;;;;4.53;2.40;;;20.50;46.90;;;;;;5032512;28;20029;-41
2020/12/10 02:58:36;;;;;;;3.38;2.42;;;20.60;46.90;;;;;;5033720;28;20041;-41
2020/12/10 03:01:04;;;;;;;4.30;2.80;;;20.50;46.80;;;;;;5033304;28;20021;-58
2020/12/10 03:03:29;;;;;;;3.17;2.55;;;20.50;46.70;;;;;;5033328;28;20086;-41
2020/12/10 03:05:55;;;;;;;3.53;2.33;;;20.50;46.70;;;;;;5023465;28;20029;-41
2020/12/10 03:08:21;;;;;;;4.18;2.47;;;20.50;46.70;;;;;;5028116;28;20033;-51
2020/12/10 03:10:48;;;;;;;3.45;2.45;;;20.60;46.60;;;;;;5033225;28;20029;-52
2020/12/10 03:13:15;;;;;;;3.60;2.67;;;20.50;46.60;;;;;;5032958;28;20033;-42
2020/12/10 03:15:41;;;;;;;2.80;2.30;;;20.60;46.60;;;;;;5033144;28;20029;-44
2020/12/10 03:18:07;;;;;;;3.83;2.72;;;20.60;46.50;;;;;;5032758;28;20104;-40
2020/12/10 03:20:32;;;;;;;2.50;2.30;;;20.60;46.50;;;;;;5033555;28;20148;-40
2020/12/10 03:22:58;;;;;;;3.50;2.60;;;20.60;47.00;;;;;;5032585;28;20363;-40
2020/12/10 03:25:24;;;;;;;2.88;2.25;;;20.60;46.40;;;;;;5030833;28;20053;-41
2020/12/10 03:27:49;;;;;;;2.42;2.00;;;20.60;46.40;;;;;;5033045;28;20060;-41
2020/12/10 03:30:15;;;;;;;3.25;2.40;;;20.60;46.30;;;;;;5031892;28;20382;-41
2020/12/10 03:32:41;;;;;;;4.50;2.53;;;20.60;46.30;;;;;;5032841;28;20116;-41
2020/12/10 03:35:07;;;;;;;3.72;2.38;;;20.60;46.20;;;;;;5032186;28;20083;-43
2020/12/10 03:37:33;;;;;;;3.50;2.30;;;20.60;46.20;;;;;;5032645;28;20022;-44
2020/12/10 03:39:59;;;;;;;4.07;3.00;;;20.60;46.20;;;;;;5033279;28;20098;-41
2020/12/10 03:42:25;;;;;;;4.38;2.40;;;20.60;46.10;;;;;;5031763;28;20120;-44
2020/12/10 03:44:51;;;;;;;3.30;2.40;;;20.60;46.10;;;;;;5032622;28;20563;-42
2020/12/10 03:47:16;;;;;;;3.20;2.42;;;20.60;46.10;;;;;;5031949;28;20080;-41
2020/12/10 03:49:42;;;;;;;3.00;2.22;;;20.60;46.00;;;;;;5031261;28;20021;-40
2020/12/10 03:52:07;;;;;;;2.95;2.40;;;20.60;46.00;;;;;;5032077;28;21098;-41
2020/12/10 03:54:33;;;;;;;3.20;2.40;;;20.60;45.90;;;;;;5032458;28;20032;-52
2020/12/10 03:56:59;;;;;;;2.67;2.10;;;20.60;45.90;;;;;;5031526;28;20037;-40
2020/12/10 03:59:25;;;;;;;2.35;2.15;;;20.60;45.80;;;;;;5032031;28;20738;-41
2020/12/10 04:01:50;;;;;;;3.78;2.60;;;20.60;45.80;;;;;;5030629;28;20026;-43
2020/12/10 04:04:16;;;;;;;3.28;2.40;;;20.60;45.80;;;;;;5031702;28;20033;-41
2020/12/10 04:06:44;;;;;;;3.15;2.10;;;20.60;45.80;;;;;;5029817;28;20033;-41
2020/12/10 04:09:10;;;;;;;3.90;2.67;;;20.60;45.70;;;;;;5030142;28;20390;-40
2020/12/10 04:11:37;;;;;;;3.28;2.58;;;20.60;45.70;;;;;;5030792;28;20033;-47
2020/12/10 04:14:03;;;;;;;4.63;2.97;;;20.60;45.70;;;;;;5032730;28;20026;-58
2020/12/10 04:16:28;;;;;;;3.28;2.70;;;20.60;45.60;;;;;;5030481;28;20482;-40
2020/12/10 04:18:54;;;;;;;3.83;2.35;;;20.60;45.60;;;;;;5032441;28;20450;-40
2020/12/10 04:21:19;;;;;;;3.03;2.42;;;20.60;45.60;;;;;;5030325;28;20398;-43
2020/12/10 04:23:45;;;;;;;2.50;2.30;;;20.60;45.50;;;;;;5031535;28;20067;-40
2020/12/10 04:26:14;;;;;;;3.10;2.50;;;20.60;45.50;;;;;;5031128;28;20195;-42
2020/12/10 04:28:41;;;;;;;2.63;2.25;;;20.60;45.40;;;;;;5032024;28;20382;-40
2020/12/10 04:31:07;;;;;;;3.63;2.47;;;20.60;45.40;;;;;;5031378;28;20104;-54
2020/12/10 04:33:33;;;;;;;4.75;2.72;;;20.60;45.40;;;;;;5031985;28;20152;-39
2020/12/10 04:35:58;;;;;;;4.47;2.40;;;20.60;45.40;;;;;;5047290;28;20045;-44
2020/12/10 04:38:24;;;;;;;3.42;2.50;;;20.60;45.30;;;;;;5031097;28;20021;-40
2020/12/10 04:40:50;;;;;;;3.45;2.75;;;20.60;45.30;;;;;;5031860;28;20422;-40
2020/12/10 04:43:18;;;;;;;4.90;2.38;;;20.60;45.20;;;;;;5030918;28;20021;-40
2020/12/10 04:45:43;;;;;;;4.32;2.72;;;20.60;45.20;;;;;;5030142;28;20029;-54
2020/12/10 04:48:09;;;;;;;2.95;2.40;;;20.60;45.20;;;;;;5030654;28;20471;-40
2020/12/10 04:50:37;;;;;;;4.13;2.70;;;20.60;45.10;;;;;;5031940;28;20080;-40
2020/12/10 04:53:04;;;;;;;3.30;2.40;;;20.60;45.20;;;;;;5031651;28;20024;-40
2020/12/10 04:55:30;;;;;;;3.45;2.40;;;20.70;45.10;;;;;;5031023;28;20025;-43
2020/12/10 04:57:58;;;;;;;3.40;2.33;;;20.60;45.10;;;;;;5031205;28;20099;-49
2020/12/10 05:00:25;;;;;;;3.83;2.75;;;20.60;45.10;;;;;;5030489;28;20025;-40
2020/12/10 05:02:50;;;;;;;3.78;2.35;;;20.70;45.10;;;;;;5031625;28;20036;-40
2020/12/10 05:05:32;;;;;;;2.83;2.20;;;20.60;45.00;;;;;;5030687;28;20470;-40
2020/12/10 05:07:59;;;;;;;3.45;2.53;;;20.60;45.00;;;;;;5029900;28;20037;-40
2020/12/10 05:10:25;;;;;;;4.07;2.47;;;20.70;44.90;;;;;;5030003;28;20087;-40
2020/12/10 05:13:06;;;;;;;3.50;2.47;;;20.70;45.00;;;;;;5030057;28;20030;-40
2020/12/10 05:15:40;;;;;;;2.70;2.17;;;20.60;44.90;;;;;;5029803;28;20029;-40
2020/12/10 05:18:07;;;;;;;3.15;2.45;;;20.60;44.90;;;;;;5028874;28;20478;-57
2020/12/10 05:20:40;;;;;;;3.95;2.45;;;20.70;44.90;;;;;;5030798;28;20108;-41
2020/12/10 05:23:07;;;;;;;2.72;2.15;;;20.70;44.80;;;;;;5029274;28;20034;-57
2020/12/10 05:25:54;;;;;;;2.90;2.10;;;20.70;44.80;;;;;;5030588;28;20494;-40
2020/12/10 05:28:24;;;;;;;2.90;2.33;;;20.60;44.70;;;;;;5028225;28;20041;-39
2020/12/10 05:31:12;;;;;;;3.22;2.78;;;20.70;44.70;;;;;;5030888;28;20029;-41
2020/12/10 05:33:58;;;;;;;3.35;2.50;;;20.60;44.70;;;;;;5028933;28;20069;-41
2020/12/10 05:36:25;;;;;;;3.28;2.28;;;20.70;44.70;;;;;;5028726;28;20029;-40
2020/12/10 05:39:05;;;;;;;3.10;2.30;;;20.70;44.70;;;;;;5029033;28;20029;-39
2020/12/10 05:41:41;;;;;;;3.95;2.95;;;20.70;44.70;;;;;;5029806;28;20132;-40
2020/12/10 05:44:18;;;;;;;3.35;2.55;;;20.70;44.60;;;;;;5028669;28;20055;-57
2020/12/10 05:46:45;;;;;;;3.33;2.88;;;20.60;44.50;;;;;;5030308;28;20086;-40
2020/12/10 05:49:11;;;;;;;3.72;2.65;;;20.70;44.60;;;;;;5029880;28;20049;-40
2020/12/10 05:51:48;;;;;;;3.58;2.75;;;20.60;44.40;;;;;;5028636;28;20026;-40
2020/12/10 05:54:18;;;;;;;4.43;2.40;;;20.60;44.40;;;;;;5029137;28;20052;-40
2020/12/10 05:57:00;;;;;;;3.20;2.40;;;20.70;44.50;;;;;;5029207;28;20029;-40
2020/12/10 05:59:27;;;;;;;3.78;2.83;;;20.70;44.50;;;;;;5028553;28;20039;-40
2020/12/10 06:02:03;;;;;;;2.33;1.88;;;20.70;44.50;;;;;;5028481;28;20095;-40
2020/12/10 06:04:29;;;;;;;3.05;2.40;;;20.70;44.40;;;;;;5028340;28;20053;-40
2020/12/10 06:07:00;;;;;;;4.70;2.63;;;20.70;44.30;;;;;;5029908;28;20036;-40
2020/12/10 06:09:26;;;;;;;3.10;2.30;;;20.60;44.30;;;;;;5027948;28;20029;-51
2020/12/10 06:12:12;;;;;;;2.83;2.28;;;20.70;44.30;;;;;;5028939;28;20033;-39
2020/12/10 06:14:55;;;;;;;3.63;2.25;;;20.70;44.30;;;;;;5028202;28;20037;-39
2020/12/10 06:17:21;;;;;;;3.10;2.80;;;20.70;44.20;;;;;;5029241;28;20035;-39
2020/12/10 06:19:47;;;;;;;3.40;2.50;;;20.70;44.20;;;;;;5029992;28;20153;-45
2020/12/10 06:22:27;;;;;;;3.03;2.38;;;20.70;44.20;;;;;;5028714;28;20486;-42
2020/12/10 06:24:57;;;;;;;5.60;2.38;;;20.70;44.10;;;;;;5025926;28;20076;-40
2020/12/10 06:27:31;;;;;;;3.70;2.45;;;20.70;44.10;;;;;;5027374;28;20067;-40
2020/12/10 06:30:13;;;;;;;3.53;2.40;;;20.70;44.20;;;;;;5029617;28;20059;-43
2020/12/10 06:32:47;;;;;;;3.45;2.58;;;20.70;44.10;;;;;;5028159;28;20056;-39
2020/12/10 06:35:34;;;;;;;3.05;2.15;;;20.70;44.00;;;;;;5027747;28;20041;-43
2020/12/10 06:38:04;;;;;;;3.08;2.25;;;20.70;44.00;;;;;;5028526;28;20028;-40
2020/12/10 06:40:33;;;;;;;3.53;2.42;;;20.70;44.00;;;;;;5029184;28;20476;-40
2020/12/10 06:42:59;;;;;;;2.65;2.28;;;20.70;43.90;;;;;;5028560;28;20470;-39
2020/12/10 06:45:35;;;;;;;2.80;2.13;;;20.70;43.90;;;;;;5026716;28;20047;-39
2020/12/10 06:48:09;;;;;;;3.53;2.47;;;20.70;43.90;;;;;;5028553;28;20160;-40
2020/12/10 06:50:40;;;;;;;3.45;2.25;;;20.70;43.90;;;;;;5029591;28;20151;-40
2020/12/10 06:53:09;;;;;;;2.22;1.67;;;20.70;43.90;;;;;;5029287;28;20060;-40
2020/12/10 06:55:55;;;;;;;3.00;2.30;;;20.70;43.80;;;;;;5028094;28;20026;-40
2020/12/10 06:58:40;;;;;;;2.97;2.40;;;20.70;43.80;;;;;;5028507;28;20041;-40
2020/12/10 07:01:22;;;;;;;4.28;2.30;;;20.70;43.80;;;;;;5030237;28;20025;-39
2020/12/10 07:03:55;;;;;;;;;;;20.70;43.80;;;;;;5031540;28;20034;-39
2020/12/10 07:06:21;;;;;;;11.77;2.63;;;20.80;43.80;;;;;;5024028;28;19913;-45
2020/12/10 07:09:07;;;;;;;7.20;2.63;;;20.80;44.20;;;;;;5029689;28;20060;-39
2020/12/10 07:11:38;;;;;;;8.60;2.50;;;20.80;44.40;;;;;;5028142;28;20025;-40
2020/12/10 07:14:33;;;;;;;7.50;2.63;;;20.70;44.30;;;;;;5024515;28;20044;-57
2020/12/10 07:17:01;;;;;;;8.38;2.60;;;20.80;44.50;;;;;;5023700;28;20422;-39
2020/12/10 07:19:26;;;;;;;7.85;2.90;;;20.80;45.00;;;;;;5028347;28;20108;-40
2020/12/10 07:21:55;;;;;;;11.35;4.68;;;20.90;44.80;;;;;;5029030;28;20060;-50
2020/12/10 07:24:21;;;;;;;6.05;2.92;;;20.90;45.60;;;;;;5055984;28;20455;-40
2020/12/10 07:26:47;;;;;;;12.23;3.38;;;21.00;45.00;;;;;;5031178;28;20057;-39
2020/12/10 07:29:13;;;;;;;7.05;2.80;;;21.00;45.30;;;;;;5045448;28;20061;-46
2020/12/10 07:31:40;;;;;;;16.27;3.25;;;20.90;44.90;;;;;;5062767;28;20033;-40
2020/12/10 07:34:11;;;;;;;8.20;3.03;;;20.90;45.10;;;;;;5030880;28;20034;-40
2020/12/10 07:36:49;;;;;;;8.00;2.50;;;20.90;45.10;;;;;;5055160;28;20034;-43
2020/12/10 07:39:35;;;;;;;10.90;2.97;;;20.90;45.20;;;;;;5028793;28;20080;-47
2020/12/10 07:42:01;;;;;;;7.80;3.03;;;20.90;45.20;;;;;;5033168;28;20129;-39
2020/12/10 07:44:32;;;;;;;8.20;3.15;;;20.90;45.20;;;;;;5025856;28;20493;-41
2020/12/10 07:46:59;;;;;;;9.55;3.10;;;20.90;45.20;;;;;;5030704;28;20471;-39
2020/12/10 07:49:29;;;;;;;9.40;2.90;;;20.90;45.10;;;;;;5030411;28;20505;-40
2020/12/10 07:52:05;;;;;;;10.10;3.15;;;20.80;45.10;;;;;;5028784;28;20048;-40
2020/12/10 07:54:46;;;;;;;5.60;2.53;;;20.80;45.00;;;;;;5029352;28;20261;-42
2020/12/10 07:57:41;;;;;;;9.18;2.45;;;20.80;44.90;;;;;;5030601;28;20044;-60
2020/12/10 08:00:09;;;;;;;7.85;2.42;;;20.80;44.90;;;;;;5025078;28;20200;-44
2020/12/10 08:02:56;;;;;;;5.10;2.55;;;20.80;44.80;;;;;;5027676;28;20038;-40
2020/12/10 08:05:24;;;;;;;6.57;2.53;;;20.80;44.80;;;;;;5029069;28;20045;-40
2020/12/10 08:07:52;;;;;;;9.18;2.80;;;20.80;44.80;;;;;;5028367;28;20045;-40
2020/12/10 08:10:26;;;;;;;6.60;2.50;;;20.80;44.70;;;;;;5029893;28;20037;-50
2020/12/10 08:13:11;;;;;;;6.65;2.45;;;20.80;44.60;;;;;;5030017;28;20034;-39
2020/12/10 08:15:39;;;;;;;6.47;2.53;;;20.80;44.60;;;;;;5029297;28;20037;-40
2020/12/10 08:18:07;;;;;;;4.93;2.90;;;20.80;44.50;;;;;;5029459;28;20044;-40
2020/12/10 08:20:46;;;;;;;7.38;3.05;;;20.80;44.50;;;;;;5026810;28;20034;-44
2020/12/10 08:23:13;;;;;;;4.57;2.33;;;20.80;44.50;;;;;;5029094;28;20041;-60
2020/12/10 08:25:40;;;;;;;4.93;2.67;;;20.80;44.30;;;;;;5029465;28;20057;-40
2020/12/10 08:28:11;;;;;;;4.65;2.80;;;20.70;44.30;;;;;;5030380;28;20037;-50
2020/12/10 08:30:48;;;;;;;6.38;3.10;;;20.70;44.20;;;;;;5028821;28;20054;-40
2020/12/10 08:33:15;;;;;;;4.50;3.00;;;20.80;44.20;;;;;;5026176;28;20029;-56
2020/12/10 08:35:43;;;;;;;4.43;2.50;;;20.80;44.20;;;;;;5029307;28;20727;-45
2020/12/10 08:38:13;;;;;;;4.68;2.65;;;20.70;44.10;;;;;;5027365;28;20461;-40
2020/12/10 08:40:39;;;;;;;4.78;2.65;;;20.80;44.10;;;;;;5027847;28;20042;-40
2020/12/10 08:43:13;;;;;;;5.38;3.17;;;20.70;44.00;;;;;;5028752;28;20120;-40
2020/12/10 08:45:44;;;;;;;4.40;2.50;;;20.70;44.00;;;;;;5029807;28;20502;-40
2020/12/10 08:48:14;;;;;;;7.15;2.58;;;20.70;43.90;;;;;;5029563;28;20037;-40
2020/12/10 08:50:54;;;;;;;7.18;3.35;;;20.70;43.90;;;;;;5030265;28;20035;-40
2020/12/10 08:53:20;;;;;;;4.70;2.38;;;20.70;43.90;;;;;;5028053;28;20486;-44
2020/12/10 08:55:49;;;;;;;7.05;2.92;;;20.70;43.80;;;;;;5029876;28;20030;-41
2020/12/10 08:58:22;;;;;;;4.32;2.25;;;20.70;43.80;;;;;;5029128;28;20091;-60
2020/12/10 09:00:48;;;;;;;3.70;2.30;;;20.70;43.70;;;;;;5030322;28;20485;-40
2020/12/10 09:03:15;;;;;;;3.40;2.38;;;20.70;43.70;;;;;;5029411;28;20037;-60
2020/12/10 09:05:41;;;;;;;4.20;2.65;;;20.70;43.70;;;;;;5028297;28;20108;-46
2020/12/10 09:08:07;;;;;;;5.10;2.28;;;20.70;43.60;;;;;;5025308;28;20561;-41
2020/12/10 09:10:33;;;;;;;4.93;2.38;;;20.70;43.60;;;;;;5025269;28;20048;-39
2020/12/10 09:13:00;;;;;;;4.38;2.83;;;20.70;43.60;;;;;;5021063;28;20449;-46
2020/12/10 09:15:26;;;;;;;5.38;2.38;;;20.70;43.60;;;;;;5033853;28;20378;-49
2020/12/10 09:17:54;;;;;;;5.30;2.50;;;20.70;43.70;;;;;;5033047;28;20052;-40
2020/12/10 09:20:20;;;;;;;3.72;2.67;;;20.80;43.60;;;;;;5046849;28;20033;-41
2020/12/10 09:22:50;;;;;;;4.38;2.60;;;20.80;43.60;;;;;;5032383;28;20033;-40
2020/12/10 09:25:16;;;;;;;6.72;2.50;;;20.80;43.60;;;;;;5030548;28;20076;-59
2020/12/10 09:27:43;;;;;;;6.60;2.20;;;20.80;43.70;;;;;;5031866;28;20065;-39
2020/12/10 09:30:12;;;;;;;5.32;2.20;;;20.80;43.70;;;;;;5032159;28;20540;-40
2020/12/10 09:32:41;;;;;;;5.70;2.67;;;20.80;43.70;;;;;;5031420;28;20037;-39
2020/12/10 09:35:09;;;;;;;3.78;2.28;;;20.80;43.80;;;;;;5032465;28;20455;-40
2020/12/10 09:37:36;;;;;;;8.70;2.50;;;20.80;43.60;;;;;;5030889;28;20033;-40
2020/12/10 09:40:04;;;;;;;6.40;2.20;;;20.80;43.60;;;;;;5030803;28;20079;-39
2020/12/10 09:42:31;;;;;;;4.07;2.10;;;20.80;43.60;;;;;;5030939;28;20021;-40
2020/12/10 09:44:57;;;;;;;4.50;2.33;;;20.80;43.70;;;;;;5031670;28;20037;-39
2020/12/10 09:47:22;;;;;;;5.07;2.33;;;20.70;43.60;;;;;;5031208;28;20034;-40
2020/12/10 09:49:48;;;;;;;4.40;2.00;;;20.80;43.60;;;;;;5032032;28;20037;-39
2020/12/10 09:52:14;;;;;;;4.18;2.08;;;20.70;43.50;;;;;;5031749;28;20029;-39
2020/12/10 09:55:07;;;;;;;3.20;2.03;;;20.70;43.40;;;;;;5031371;28;20072;-39
2020/12/10 09:59:57;;;;;;;2.72;2.03;;;20.80;43.50;;;;;;5031304;28;20025;-39
2020/12/10 10:02:24;;;;;;;2.55;1.90;;;20.80;43.40;;;;;;5029742;28;20064;-39
2020/12/10 10:04:53;;;;;;;4.03;2.70;;;20.80;43.40;;;;;;5031365;28;20029;-39
2020/12/10 10:07:40;;;;;;;2.72;1.83;;;20.70;43.30;;;;;;5028036;28;20034;-39
2020/12/10 10:10:05;;;;;;;3.40;2.05;;;20.80;43.40;;;;;;5031286;28;20029;-39
2020/12/10 10:12:31;;;;;;;3.53;2.00;;;20.80;43.30;;;;;;5028738;28;20036;-39
2020/12/10 10:14:57;;;;;;;2.35;1.85;;;20.70;43.20;;;;;;5030948;28;20028;-39
2020/12/10 10:17:42;;;;;;;2.90;2.22;;;20.80;43.20;;;;;;5031244;28;20470;-39
2020/12/10 10:20:11;;;;;;;3.53;2.00;;;20.80;43.20;;;;;;5031700;28;20037;-39
2020/12/10 10:22:40;;;;;;;4.00;2.15;;;20.80;43.20;;;;;;5031201;28;20181;-39
2020/12/10 10:25:07;;;;;;;2.97;2.20;;;20.70;43.20;;;;;;5030694;28;20045;-40
2020/12/10 10:27:32;;;;;;;2.80;1.95;;;20.70;43.10;;;;;;5030668;28;20030;-40
2020/12/10 10:29:58;;;;;;;2.47;1.90;;;20.80;43.20;;;;;;5031565;28;20112;-39
2020/12/10 10:32:24;;;;;;;3.42;1.83;;;20.70;43.10;;;;;;5029210;28;20091;-40
2020/12/10 10:34:50;;;;;;;5.78;2.58;;;20.80;43.10;;;;;;5031686;28;20083;-40
2020/12/10 10:37:16;;;;;;;2.47;1.92;;;20.80;43.10;;;;;;5030004;28;20036;-39
2020/12/10 10:39:42;;;;;;;2.55;1.55;;;20.80;43.10;;;;;;5029646;28;20025;-40
2020/12/10 10:42:13;;;;;;;2.97;1.80;;;20.70;43.00;;;;;;5031579;28;20025;-39
2020/12/10 10:44:38;;;;;;;2.53;1.90;;;20.80;43.10;;;;;;5045179;28;20112;-39
2020/12/10 10:47:04;;;;;;;2.83;1.67;;;20.70;43.00;;;;;;5031502;28;20347;-39
2020/12/10 10:49:33;;;;;;;3.90;2.10;;;20.70;43.10;;;;;;5030068;28;20099;-42
2020/12/10 10:51:58;;;;;;;3.40;1.90;;;20.70;43.00;;;;;;5030995;28;20064;-39
2020/12/10 10:54:25;;;;;;;4.25;1.75;;;20.70;43.00;;;;;;5029844;28;20029;-40
2020/12/10 10:56:50;;;;;;;3.88;1.83;;;20.80;43.00;;;;;;5029224;28;20080;-39
2020/12/10 10:59:24;;;;;;;2.30;1.65;;;20.80;43.00;;;;;;5031447;28;20113;-40
2020/12/10 11:01:49;;;;;;;2.90;1.73;;;20.80;43.00;;;;;;5045988;28;20037;-39
2020/12/10 11:04:16;;;;;;;2.70;1.85;;;20.80;43.00;;;;;;5029944;28;20029;-39
2020/12/10 11:06:41;;;;;;;4.13;1.85;;;20.80;43.00;;;;;;5030135;28;20045;-39
2020/12/10 11:09:07;;;;;;;4.25;2.20;;;20.80;43.00;;;;;;5031729;28;20026;-39
2020/12/10 11:11:33;;;;;;;2.83;1.92;;;20.70;42.90;;;;;;5033074;28;20033;-40
2020/12/10 11:14:18;;;;;;;1.98;1.67;;;20.70;42.90;;;;;;5035565;28;20075;-39
2020/12/10 11:16:56;;;;;;;2.63;1.90;;;20.80;42.90;;;;;;5034781;28;20030;-39
2020/12/10 11:19:22;;;;;;;2.53;1.75;;;20.70;42.80;;;;;;5034802;28;20048;-59
2020/12/10 11:21:48;;;;;;;1.92;1.40;;;20.70;42.80;;;;;;5035267;28;20075;-39
2020/12/10 11:24:34;;;;;;;4.95;1.88;;;20.70;42.80;;;;;;5046236;28;20046;-39
2020/12/10 11:27:00;;;;;;;3.10;2.22;;;20.70;42.80;;;;;;5035820;28;20030;-39
2020/12/10 11:29:30;;;;;;;3.70;1.95;;;20.70;42.80;;;;;;5034577;28;20417;-40
2020/12/10 11:31:56;;;;;;;2.28;1.60;;;20.80;42.90;;;;;;5033751;28;20459;-40
2020/12/10 11:34:22;;;;;;;2.33;1.83;;;20.80;42.80;;;;;;5034434;28;20032;-59
2020/12/10 11:36:48;;;;;;;2.22;1.70;;;20.70;42.70;;;;;;5034968;28;20030;-39
2020/12/10 11:39:24;;;;;;;2.25;1.70;;;20.70;42.70;;;;;;5034907;28;20052;-39
2020/12/10 11:41:53;;;;;;;3.30;1.83;;;20.70;42.70;;;;;;5034821;28;20384;-39
2020/12/10 11:44:19;;;;;;;2.42;1.80;;;20.70;42.70;;;;;;5034473;28;20026;-59
2020/12/10 11:46:57;;;;;;;2.60;1.83;;;20.70;42.70;;;;;;5032852;28;20533;-39
2020/12/10 11:49:24;;;;;;;3.47;1.90;;;20.80;42.70;;;;;;5033855;28;20037;-57
2020/12/10 11:51:49;;;;;;;2.60;1.70;;;20.80;42.70;;;;;;5034566;28;20033;-39
2020/12/10 11:54:15;;;;;;;3.45;2.05;;;20.70;42.50;;;;;;5034613;28;20078;-39
2020/12/10 11:56:41;;;;;;;2.65;1.80;;;20.70;42.50;;;;;;5048989;28;20147;-39
2020/12/10 11:59:08;;;;;;;2.40;1.98;;;20.70;42.50;;;;;;5034534;28;20395;-39
2020/12/10 12:01:37;;;;;;;3.33;2.22;;;20.70;42.50;;;;;;5033473;28;20025;-40
2020/12/10 12:04:03;;;;;;;2.70;1.88;;;20.80;42.60;;;;;;5034387;28;20045;-40
2020/12/10 12:06:29;;;;;;;2.78;1.95;;;20.80;42.60;;;;;;5033290;28;20029;-40
2020/12/10 12:09:14;;;;;;;2.80;2.10;;;20.70;42.50;;;;;;5034679;28;20032;-40
2020/12/10 12:11:40;;;;;;;2.70;1.95;;;20.80;42.50;;;;;;5033376;28;20037;-39
2020/12/10 12:14:06;;;;;;;2.90;2.10;;;20.70;42.40;;;;;;5033929;28;20432;-39
2020/12/10 12:16:32;;;;;;;2.35;1.73;;;20.70;42.50;;;;;;5033510;28;20108;-39
2020/12/10 12:18:57;;;;;;;2.33;1.92;;;20.80;42.40;;;;;;5034416;28;20065;-39
2020/12/10 12:21:27;;;;;;;3.42;2.22;;;20.70;42.30;;;;;;5033410;28;20028;-59
2020/12/10 12:23:53;;;;;;;2.05;1.67;;;20.70;42.30;;;;;;5032511;28;20155;-39
2020/12/10 12:26:28;;;;;;;2.10;1.80;;;20.80;42.30;;;;;;5033770;28;20072;-39
2020/12/10 12:28:54;;;;;;;2.15;1.92;;;20.80;42.30;;;;;;5034157;28;20065;-39
2020/12/10 12:31:43;;;;;;;2.35;2.00;;;20.70;42.30;;;;;;5034122;28;20060;-54
2020/12/10 12:34:09;;;;;;;2.53;1.95;;;20.80;42.30;;;;;;5036288;28;20037;-39
2020/12/10 12:36:41;;;;;;;2.75;1.75;;;20.70;42.30;;;;;;5031641;28;20026;-39
2020/12/10 12:39:06;;;;;;;2.47;1.80;;;20.70;42.20;;;;;;5034077;28;20099;-42
2020/12/10 12:41:33;;;;;;;2.25;1.73;;;20.70;42.20;;;;;;5033268;28;20076;-42
2020/12/10 12:44:00;;;;;;;2.40;2.00;;;20.80;42.20;;;;;;5033784;28;20028;-39
2020/12/10 12:46:26;;;;;;;2.55;2.00;;;20.70;42.20;;;;;;5031861;28;20107;-43
2020/12/10 12:48:55;;;;;;;2.70;1.85;;;20.80;42.20;;;;;;5033411;28;20493;-39
2020/12/10 12:51:22;;;;;;;2.38;2.00;;;20.80;42.20;;;;;;5033222;28;20037;-55
2020/12/10 12:54:11;;;;;;;2.88;2.08;;;20.70;42.10;;;;;;5048597;28;20036;-39
2020/12/10 12:56:37;;;;;;;3.67;2.33;;;20.80;42.10;;;;;;5032775;28;20447;-39
2020/12/10 12:59:02;;;;;;;3.75;2.63;;;20.80;42.00;;;;;;5032163;28;20099;-39